createdAt,value
2024-02-19T00:01:40.430Z,9.1
2024-02-19T00:09:56.144Z,9.1
2024-02-19T00:18:12.049Z,9.1
2024-02-19T00:26:27.729Z,9.1
2024-02-19T00:34:43.620Z,9.2
2024-02-19T00:42:59.336Z,9.1
2024-02-19T00:51:15.064Z,9.1
2024-02-19T00:59:30.867Z,9
2024-02-19T01:07:46.663Z,9
2024-02-19T01:16:02.494Z,9.1
2024-02-19T01:24:18.234Z,8.9
2024-02-19T01:32:34.043Z,9
2024-02-19T01:40:49.842Z,9
2024-02-19T01:49:05.722Z,8.8
2024-02-19T01:57:21.384Z,8.9
2024-02-19T02:05:37.329Z,9
2024-02-19T02:13:53.019Z,8.8
2024-02-19T02:22:08.792Z,8.8
2024-02-19T02:30:24.575Z,8.7
2024-02-19T02:38:40.340Z,8.8
2024-02-19T02:46:56.090Z,8.8
2024-02-19T02:55:11.972Z,8.8
2024-02-19T03:03:27.692Z,8.8
2024-02-19T03:11:43.497Z,8.7
2024-02-19T03:19:59.346Z,8.7
2024-02-19T03:28:15.158Z,8.7
2024-02-19T03:36:30.854Z,8.7
2024-02-19T03:53:02.468Z,8.8
2024-02-19T04:01:18.326Z,8.7
2024-02-19T04:09:34.030Z,8.7
2024-02-19T04:17:49.913Z,8.8
2024-02-19T04:26:05.594Z,8.6
2024-02-19T04:34:21.402Z,8.6
2024-02-19T04:42:37.226Z,8.7
2024-02-19T04:50:52.958Z,8.7
2024-02-19T04:59:08.716Z,8.5
2024-02-19T05:15:40.339Z,8.6
2024-02-19T05:23:56.087Z,8.6
2024-02-19T05:32:11.916Z,8.7
2024-02-19T05:40:27.741Z,8.7
2024-02-19T05:48:43.461Z,8.7
2024-02-19T05:56:59.196Z,8.7
2024-02-19T06:05:14.998Z,8.7
2024-02-19T06:13:30.741Z,8.7
2024-02-19T06:21:46.513Z,8.7
2024-02-19T06:30:02.395Z,8.7
2024-02-19T06:38:18.206Z,8.6
2024-02-19T06:46:33.843Z,8.4
2024-02-19T06:54:49.702Z,8.3
2024-02-19T07:03:05.410Z,8.2
2024-02-19T07:11:21.205Z,8.2
2024-02-19T07:19:37.085Z,8
2024-02-19T07:27:52.843Z,7.9
2024-02-19T07:36:08.484Z,8.1
2024-02-19T07:44:24.289Z,8.3
2024-02-19T07:52:40.079Z,8.7
2024-02-19T08:00:55.875Z,8.9
2024-02-19T08:09:11.654Z,8.9
2024-02-19T08:42:15.049Z,9.8
2024-02-19T08:58:46.675Z,10
2024-02-19T09:07:02.597Z,10.3
2024-02-19T09:15:18.380Z,10.6
2024-02-19T09:23:34.242Z,10.8
2024-02-19T09:31:50.150Z,11.1
2024-02-19T09:40:06.060Z,11.1
2024-02-19T09:48:21.931Z,11
2024-02-19T09:56:37.701Z,10.9
2024-02-19T10:04:53.657Z,11.1
2024-02-19T10:21:25.258Z,11.5
2024-02-19T10:29:41.180Z,11.6
2024-02-19T10:37:57.065Z,12
2024-02-19T10:46:13.081Z,12.5
2024-02-19T10:54:28.879Z,12.7
2024-02-19T11:02:44.813Z,12.5
2024-02-19T11:11:00.749Z,12.4
2024-02-19T11:19:16.678Z,12.3
2024-02-19T11:27:32.531Z,12.5
2024-02-19T11:35:48.580Z,12.9
2024-02-19T11:44:04.400Z,12.8
2024-02-19T11:52:20.415Z,12.7
2024-02-19T12:00:36.270Z,12.9
2024-02-19T12:08:52.169Z,13.1
2024-02-19T12:17:08.128Z,13.5
2024-02-19T12:25:24.109Z,13.5
2024-02-19T12:33:40.121Z,13.5
2024-02-19T12:41:55.990Z,13.2
2024-02-19T12:50:11.955Z,13.1
2024-02-19T12:58:27.943Z,13.4
2024-02-19T13:06:43.950Z,13.8
2024-02-19T13:14:59.763Z,14.1
2024-02-19T13:23:15.731Z,14.3
2024-02-19T13:31:31.799Z,14.1
2024-02-19T13:39:47.770Z,14.5
2024-02-19T13:48:03.762Z,14.5
2024-02-19T13:56:19.725Z,14.9
2024-02-19T14:21:07.733Z,14.3
2024-02-19T14:29:23.711Z,16.2
2024-02-19T14:37:39.838Z,17.3
2024-02-19T14:45:55.985Z,17.2
2024-02-19T14:54:12.025Z,17
2024-02-19T15:02:28.287Z,17
2024-02-19T15:10:44.312Z,17.3
2024-02-19T15:19:00.488Z,17.5
2024-02-19T15:27:16.414Z,16.6
2024-02-19T15:35:32.617Z,15.3
2024-02-19T15:52:04.559Z,14.5
2024-02-19T16:00:20.520Z,13.8
2024-02-19T16:08:36.494Z,13.2
2024-02-19T16:16:52.440Z,13
2024-02-19T16:33:24.292Z,12.4
2024-02-19T16:41:40.175Z,12.3
2024-02-19T16:49:56.140Z,12
2024-02-19T16:58:12.060Z,11.9
2024-02-19T17:06:27.940Z,11.7
2024-02-19T17:14:45.053Z,11.5
2024-02-19T17:22:59.705Z,11.3
2024-02-19T17:31:15.565Z,11.1
2024-02-19T17:39:31.393Z,11
2024-02-19T17:47:47.292Z,11
2024-02-19T17:56:03.138Z,11
2024-02-19T18:04:19.032Z,10.9
2024-02-19T18:12:34.833Z,10.7
2024-02-19T18:20:50.662Z,10.6
2024-02-19T18:45:38.226Z,10
2024-02-19T18:53:54.033Z,9.9
2024-02-19T19:02:09.895Z,9.8
2024-02-19T19:10:25.750Z,9.6
2024-02-19T19:18:41.617Z,9.7
2024-02-19T19:35:13.215Z,9.7
2024-02-19T19:43:29.010Z,9.8
2024-02-19T19:51:44.738Z,9.8
2024-02-19T20:00:00.815Z,9.8
2024-02-19T20:08:16.371Z,9.8
2024-02-19T20:16:32.251Z,9.9
2024-02-19T20:24:48.084Z,9.9
2024-02-19T20:33:04.053Z,10.1
2024-02-19T20:41:19.664Z,10.1
2024-02-19T20:49:35.662Z,10.2
2024-02-19T20:57:51.389Z,10.1
2024-02-19T21:06:07.208Z,9.7
2024-02-19T21:14:22.919Z,9.4
2024-02-19T21:22:38.827Z,9
2024-02-19T21:30:54.510Z,9
2024-02-19T21:39:10.339Z,9
2024-02-19T21:47:26.014Z,8.7
2024-02-19T21:55:41.801Z,8.6
2024-02-19T22:03:57.541Z,8.5
2024-02-19T22:12:13.284Z,8.4
2024-02-19T22:20:29.053Z,8.4
2024-02-19T22:28:44.807Z,8.5
2024-02-19T22:37:00.537Z,8.7
2024-02-19T22:45:16.299Z,8.8
2024-02-19T22:53:32.181Z,8.7
2024-02-19T23:01:47.905Z,8.7
2024-02-19T23:10:03.640Z,8.7
2024-02-19T23:18:19.559Z,8.7
2024-02-19T23:26:35.206Z,8.8
2024-02-19T23:34:50.984Z,8.8
2024-02-19T23:43:06.795Z,8.7
2024-02-19T23:51:22.535Z,8.7
2024-02-19T23:59:38.284Z,8.8
